Time;durP1;ratioP1;P1;durP2;ratioP2;P2;SDS_P1;SDS_P2;PMS_P1;PMS_P2;Temp;Humidity;BMP_temperature;BMP_pressure;BME280_temperature;BME280_humidity;BME280_pressure;Samples;Min_cycle;Max_cycle;Signal;HPM_P1;HPM_P2
2022/01/26 00:06:42;;;;;;;112.18;60.30;;;;;;;1.69;77.51;103290.22;5061263;28;20072;-73
2022/01/26 00:09:09;;;;;;;112.90;63.67;;;;;;;1.69;77.92;103297.97;5040198;28;20044;-74
2022/01/26 00:11:36;;;;;;;125.07;64.93;;;;;;;1.68;77.99;103296.22;5036072;28;20552;-73
2022/01/26 00:14:03;;;;;;;117.65;62.40;;;;;;;1.67;78.07;103297.00;5044911;28;20021;-73
2022/01/26 00:16:39;;;;;;;109.80;61.65;;;;;;;1.67;78.18;103294.41;5061621;28;20032;-73
2022/01/26 00:19:07;;;;;;;112.90;63.78;;;;;;;1.66;78.18;103290.03;5063523;28;20131;-73
2022/01/26 00:21:43;;;;;;;121.88;62.53;;;;;;;1.66;77.95;103290.03;5046628;28;20025;-74
2022/01/26 00:24:50;;;;;;;114.93;60.58;;;;;;;1.66;78.11;103290.03;5037602;28;20037;-72
2022/01/26 00:27:08;;;;;;;117.80;62.78;;;;;;;1.65;78.16;103292.53;5045863;28;20444;-73
2022/01/26 00:29:39;;;;;;;115.72;60.88;;;;;;;1.64;78.39;103288.13;5045395;28;20028;-74
2022/01/26 00:40:40;;;;;;;118.82;60.78;;;;;;;1.59;79.05;103269.75;5060246;28;20488;-73
2022/01/26 00:43:26;;;;;;;121.80;65.50;;;;;;;1.59;78.70;103274.94;5019920;28;20120;-75
2022/01/26 00:45:56;;;;;;;117.00;60.88;;;;;;;1.56;78.91;103269.56;5057166;28;20052;-72
2022/01/26 00:48:23;;;;;;;115.75;60.60;;;;;;;1.55;78.87;103272.94;5039632;28;20037;-75
2022/01/26 00:50:51;;;;;;;111.93;58.58;;;;;;;1.54;78.36;103274.63;5047195;28;20032;-73
2022/01/26 00:53:25;;;;;;;110.65;58.72;;;;;;;1.54;78.88;103273.75;5047411;28;20052;-74
2022/01/26 00:55:50;;;;;;;117.50;62.35;;;;;;;1.54;78.38;103279.81;5043671;28;20064;-73
2022/01/26 00:58:16;;;;;;;119.65;62.28;;;;;;;1.53;78.36;103275.41;5016148;28;20079;-71
2022/01/26 01:00:42;;;;;;;109.55;57.33;;;;;;;1.53;78.78;103277.13;5039930;28;20061;-75
2022/01/26 01:03:07;;;;;;;117.45;62.15;;;;;;;1.50;78.25;103271.75;5039883;28;20037;-73
2022/01/26 01:08:20;;;;;;;112.95;54.63;;;;;;;1.47;78.48;103274.16;5041543;28;20029;-74
2022/01/26 01:10:48;;;;;;;114.55;59.75;;;;;;;1.46;78.25;103265.50;5030115;28;20037;-74
2022/01/26 01:13:20;;;;;;;112.47;56.97;;;;;;;1.46;78.65;103267.19;5018060;28;20038;-73
2022/01/26 01:15:47;;;;;;;116.18;58.88;;;;;;;1.46;78.28;103264.59;5038766;28;20053;-74
2022/01/26 01:18:25;;;;;;;114.97;62.00;;;;;;;1.45;78.90;103265.38;5016447;28;20099;-73
2022/01/26 01:29:13;;;;;;;117.82;60.03;;;;;;;1.43;78.10;103257.53;5032518;28;20037;-74
2022/01/26 01:34:06;;;;;;;125.65;65.25;;;;;;;1.40;78.35;103247.00;5042456;28;20160;-73
2022/01/26 01:36:33;;;;;;;117.38;61.45;;;;;;;1.42;78.38;103239.34;5047338;28;20052;-73
2022/01/26 01:39:00;;;;;;;118.15;61.00;;;;;;;1.38;78.22;103228.81;5043684;28;20033;-74
2022/01/26 01:41:25;;;;;;;118.47;61.08;;;;;;;1.38;78.38;103234.00;5018494;28;20025;-73
2022/01/26 01:43:51;;;;;;;113.13;58.97;;;;;;;1.40;78.67;103247.00;5035187;28;20439;-73
2022/01/26 01:46:16;;;;;;;133.88;64.22;;;;;;;1.37;78.53;103237.38;5030031;28;20034;-74
2022/01/26 01:48:42;;;;;;;121.45;64.25;;;;;;;1.39;78.70;103242.63;5027636;28;20559;-74
2022/01/26 01:51:11;;;;;;;123.95;64.50;;;;;;;1.38;79.28;103236.59;5038213;28;20041;-73
2022/01/26 01:53:41;;;;;;;124.60;63.22;;;;;;;1.38;78.33;103230.53;5063098;28;20038;-73
2022/01/26 01:56:10;;;;;;;120.22;58.42;;;;;;;1.38;78.43;103244.34;5069648;28;20020;-73
2022/01/26 01:58:37;;;;;;;133.32;64.00;;;;;;;1.38;78.79;103246.03;5055236;28;20021;-74
2022/01/26 02:01:05;;;;;;;124.03;58.03;;;;;;;1.37;78.32;103237.38;5054632;28;20465;-73
2022/01/26 02:03:31;;;;;;;113.45;59.53;;;;;;;1.37;78.40;103242.53;5065345;28;20127;-73
2022/01/26 02:05:57;;;;;;;126.38;62.15;;;;;;;1.37;78.74;103245.13;5055072;28;20180;-73
2022/01/26 02:08:24;;;;;;;121.55;64.22;;;;;;;1.38;78.99;103238.28;5037367;28;20039;-73
2022/01/26 02:10:51;;;;;;;120.53;63.03;;;;;;;1.41;79.34;103234.97;5044828;28;20101;-73
2022/01/26 02:13:22;;;;;;;125.40;63.97;;;;;;;1.37;78.97;103232.19;5055382;28;20047;-73
2022/01/26 02:18:54;;;;;;;124.20;66.73;;;;;;;1.41;78.40;103215.22;5058819;28;20032;-74
2022/01/26 02:56:45;;;;;;;116.93;58.67;;;;;;;1.37;79.58;103185.69;5063804;28;20037;-70
2022/01/26 03:01:51;;;;;;;118.88;61.70;;;;;;;1.36;79.46;103173.56;5070488;28;20032;-69
2022/01/26 03:09:35;;;;;;;125.72;62.25;;;;;;;1.35;79.31;103181.22;5069437;28;20033;-69
2022/01/26 03:12:02;;;;;;;118.65;64.93;;;;;;;1.35;78.14;103184.72;5042620;28;20377;-70
2022/01/26 03:14:39;;;;;;;117.70;62.90;;;;;;;1.33;78.68;103167.31;5041384;28;20032;-69
2022/01/26 03:17:16;;;;;;;126.70;66.28;;;;;;;1.30;78.79;103165.44;5052735;28;20064;-70
2022/01/26 03:19:47;;;;;;;120.97;62.30;;;;;;;1.27;77.94;103167.81;5060682;28;20495;-70
2022/01/26 03:35:16;;;;;;;105.88;55.72;;;;;;;1.24;79.10;103177.09;5076497;28;20036;-73
2022/01/26 03:37:50;;;;;;;117.03;61.15;;;;;;;1.25;78.71;103169.44;5044957;28;20051;-74
2022/01/26 03:40:16;;;;;;;106.35;59.20;;;;;;;1.23;78.00;103165.84;5076091;28;20027;-73
2022/01/26 03:42:42;;;;;;;111.00;57.97;;;;;;;1.22;78.52;103174.38;5074605;28;20578;-73
2022/01/26 03:45:08;;;;;;;106.75;58.15;;;;;;;1.21;78.81;103177.78;5052006;28;20056;-73
2022/01/26 03:47:37;;;;;;;114.35;59.70;;;;;;;1.20;79.01;103184.59;5071710;28;20039;-74
2022/01/26 03:50:03;;;;;;;115.18;62.17;;;;;;;1.20;79.31;103187.19;5056827;28;20488;-74
2022/01/26 03:52:29;;;;;;;110.55;58.05;;;;;;;1.21;78.42;103162.28;5058621;28;20056;-74
2022/01/26 03:54:54;;;;;;;107.75;58.88;;;;;;;1.20;78.60;103161.38;5065257;28;20041;-74
2022/01/26 03:57:21;;;;;;;112.47;59.00;;;;;;;1.20;78.43;103165.66;5066380;28;20033;-73
2022/01/26 03:59:46;;;;;;;125.30;62.85;;;;;;;1.19;78.39;103158.69;5057678;28;20373;-73
2022/01/26 04:02:12;;;;;;;122.60;61.15;;;;;;;1.15;78.71;103169.59;5074262;28;20123;-72
2022/01/26 04:04:45;;;;;;;122.03;63.60;;;;;;;1.13;78.04;103166.06;5073346;28;20032;-73
2022/01/26 04:07:11;;;;;;;107.60;53.17;;;;;;;1.12;78.51;103167.75;5071826;28;20029;-72
2022/01/26 04:09:41;;;;;;;129.55;65.15;;;;;;;1.10;78.60;103165.84;5039045;28;20036;-73
2022/01/26 04:12:07;;;;;;;129.82;64.80;;;;;;;1.10;79.07;103160.69;5071606;28;20135;-73
2022/01/26 04:14:34;;;;;;;124.22;64.35;;;;;;;1.04;79.87;103156.91;5074727;28;20495;-69
2022/01/26 04:17:00;;;;;;;127.72;64.82;;;;;;;1.01;80.05;103154.13;5057163;28;20035;-69
2022/01/26 04:19:28;;;;;;;128.63;65.22;;;;;;;0.98;80.67;103147.91;5058364;28;20054;-70
2022/01/26 04:22:06;;;;;;;122.47;64.65;;;;;;;0.94;81.04;103141.63;5055756;28;20429;-69
2022/01/26 04:24:38;;;;;;;120.72;62.33;;;;;;;0.92;80.88;103145.81;5038140;28;20439;-70
2022/01/26 04:27:18;;;;;;;130.68;61.33;;;;;;;0.91;81.16;103144.00;5040746;28;20036;-70
2022/01/26 04:29:43;;;;;;;127.80;62.85;;;;;;;0.90;80.84;103155.13;5055749;28;20035;-70
2022/01/26 04:32:10;;;;;;;127.90;63.00;;;;;;;0.89;80.64;103163.69;5072396;28;20040;-69
2022/01/26 04:34:36;;;;;;;114.90;61.25;;;;;;;0.90;80.81;103169.72;5050166;28;20032;-69
2022/01/26 04:37:14;;;;;;;125.75;65.22;;;;;;;0.93;81.17;103181.13;5055939;28;20032;-69
2022/01/26 04:39:49;;;;;;;128.52;60.33;;;;;;;0.94;80.63;103187.22;5062703;28;20480;-69
2022/01/26 04:42:26;;;;;;;120.68;61.00;;;;;;;0.93;80.89;103185.41;5062075;28;20025;-69
2022/01/26 04:45:01;;;;;;;123.38;61.30;;;;;;;0.93;81.27;103186.28;5059601;28;20093;-69
2022/01/26 04:47:27;;;;;;;123.95;60.50;;;;;;;0.94;81.10;103190.69;5039324;28;20460;-69
2022/01/26 04:49:52;;;;;;;118.40;61.58;;;;;;;0.97;81.58;103197.72;5059079;28;20039;-69
2022/01/26 04:52:18;;;;;;;117.10;59.45;;;;;;;0.97;81.03;103196.03;5058707;28;20052;-70
2022/01/26 04:54:43;;;;;;;133.20;64.13;;;;;;;0.98;80.85;103195.25;5034642;28;20037;-69
2022/01/26 04:57:09;;;;;;;114.45;55.60;;;;;;;0.97;81.18;103177.97;5056421;28;20123;-70
2022/01/26 04:59:34;;;;;;;139.05;65.00;;;;;;;0.96;80.78;103177.88;5041265;28;20395;-70
2022/01/26 05:01:59;;;;;;;116.82;59.38;;;;;;;0.96;81.16;103191.69;5042065;28;20492;-69
2022/01/26 05:04:25;;;;;;;127.63;58.35;;;;;;;0.98;80.93;103196.94;5045680;28;20587;-70
2022/01/26 05:06:50;;;;;;;118.20;60.53;;;;;;;0.98;81.22;103184.91;5055850;28;20431;-69
2022/01/26 05:09:23;;;;;;;125.88;63.25;;;;;;;0.99;81.27;103171.22;5080954;28;20047;-70
2022/01/26 05:11:51;;;;;;;122.90;61.47;;;;;;;1.00;81.41;103173.00;5038267;28;20040;-70
2022/01/26 05:14:16;;;;;;;124.55;56.15;;;;;;;0.98;81.56;103184.91;5044693;28;20093;-70
2022/01/26 05:16:42;;;;;;;119.55;61.97;;;;;;;1.00;80.86;103188.47;5055860;28;20429;-70
2022/01/26 05:19:10;;;;;;;130.93;63.63;;;;;;;1.00;80.62;103182.44;5061494;28;20062;-70
2022/01/26 05:21:36;;;;;;;124.50;64.47;;;;;;;0.98;80.85;103164.25;5070154;28;20549;-70
2022/01/26 05:24:02;;;;;;;130.27;63.55;;;;;;;0.97;81.20;103154.72;5063932;28;20027;-71
2022/01/26 05:26:28;;;;;;;131.02;62.38;;;;;;;0.94;81.07;103146.78;5076690;28;20036;-72
2022/01/26 05:28:54;;;;;;;136.32;66.53;;;;;;;0.90;80.97;103137.06;5059701;28;20036;-72
2022/01/26 05:31:20;;;;;;;124.35;59.72;;;;;;;0.87;81.17;103136.84;5084667;28;20028;-71
2022/01/26 05:33:46;;;;;;;127.97;61.50;;;;;;;0.85;81.06;103136.75;5037837;28;20044;-69
2022/01/26 05:36:12;;;;;;;131.20;60.30;;;;;;;0.88;80.93;103151.56;5058388;28;20467;-70
2022/01/26 05:38:40;;;;;;;121.35;60.78;;;;;;;0.86;81.16;103140.22;5055068;28;20029;-70
2022/01/26 05:41:08;;;;;;;125.35;61.15;;;;;;;0.88;81.37;103155.81;5079683;28;20070;-70
2022/01/26 05:43:34;;;;;;;124.32;60.97;;;;;;;0.88;80.87;103150.66;5071273;28;20119;-69
2022/01/26 05:46:06;;;;;;;131.27;65.80;;;;;;;0.88;80.76;103141.22;5074050;28;20069;-70
2022/01/26 05:48:33;;;;;;;119.95;59.13;;;;;;;0.89;81.08;103145.63;5059461;28;20115;-71
2022/01/26 05:51:07;;;;;;;125.70;61.40;;;;;;;0.89;81.13;103142.13;5052691;28;20036;-70
2022/01/26 05:53:34;;;;;;;127.80;61.03;;;;;;;0.90;81.13;103149.06;5054239;28;20462;-70
2022/01/26 05:56:00;;;;;;;134.02;63.35;;;;;;;0.92;81.03;103137.16;5046317;28;20061;-70
2022/01/26 05:58:28;;;;;;;134.80;65.60;;;;;;;0.94;80.79;103140.75;5069779;28;20036;-71
2022/01/26 06:00:57;;;;;;;130.93;62.20;;;;;;;0.92;80.64;103134.56;5048631;28;20039;-71
2022/01/26 06:03:22;;;;;;;122.30;60.58;;;;;;;0.91;81.05;103128.53;5062412;28;20027;-70
2022/01/26 06:05:48;;;;;;;116.22;57.42;;;;;;;0.93;80.66;103132.06;5062846;28;20024;-70
2022/01/26 06:08:13;;;;;;;124.00;59.08;;;;;;;0.92;80.89;103126.81;5069972;28;20040;-70
2022/01/26 06:10:39;;;;;;;123.82;58.13;;;;;;;0.93;81.17;103133.78;5050726;28;20032;-71
2022/01/26 06:13:04;;;;;;;123.25;60.63;;;;;;;0.91;81.01;103135.38;5037992;28;20029;-70
2022/01/26 06:15:30;;;;;;;113.43;60.63;;;;;;;0.91;81.16;103144.00;5047051;28;20032;-71
2022/01/26 06:17:55;;;;;;;116.07;59.22;;;;;;;0.92;81.04;103150.97;5037617;28;20472;-70
2022/01/26 06:20:24;;;;;;;127.10;61.08;;;;;;;0.92;81.04;103157.81;5054374;28;20036;-70
2022/01/26 06:22:52;;;;;;;125.20;60.38;;;;;;;0.93;81.16;103160.47;5057384;28;20067;-70
2022/01/26 06:25:17;;;;;;;128.23;57.78;;;;;;;0.95;81.40;103153.75;5065986;28;20008;-71
2022/01/26 06:27:47;;;;;;;134.50;60.08;;;;;;;0.96;80.98;103131.38;5069586;28;20392;-71
2022/01/26 06:30:12;;;;;;;122.53;57.53;;;;;;;0.94;80.96;103131.28;5054076;28;20032;-70
2022/01/26 06:32:38;;;;;;;141.80;64.00;;;;;;;0.96;81.40;103145.22;5037276;28;20546;-70
2022/01/26 06:35:07;;;;;;;128.18;65.07;;;;;;;0.94;81.51;103140.75;5055529;28;20032;-70
2022/01/26 06:37:32;;;;;;;131.57;64.18;;;;;;;0.93;81.43;103132.06;5074084;28;20055;-70
2022/01/26 06:40:00;;;;;;;132.88;60.17;;;;;;;0.92;81.68;103125.16;5055842;28;20094;-71
2022/01/26 06:42:31;;;;;;;125.40;63.22;;;;;;;0.94;81.75;103135.56;5070457;28;20111;-70
2022/01/26 06:45:10;;;;;;;127.97;62.75;;;;;;;0.95;81.76;103132.19;5057048;28;20145;-70
2022/01/26 06:48:01;;;;;;;128.25;59.83;;;;;;;0.99;82.07;103136.75;5037414;28;20031;-70
2022/01/26 06:50:26;;;;;;;131.70;63.08;;;;;;;0.98;82.03;103140.16;5075443;28;20029;-70
2022/01/26 06:52:52;;;;;;;130.43;63.03;;;;;;;0.99;82.24;103145.41;5071690;28;20504;-70
2022/01/26 06:55:19;;;;;;;125.32;62.97;;;;;;;1.01;81.91;103156.72;5072660;28;20107;-69
2022/01/26 06:57:45;;;;;;;118.55;57.75;;;;;;;1.03;82.20;103147.41;5079833;28;20452;-71
2022/01/26 07:00:11;;;;;;;124.97;59.70;;;;;;;1.04;82.51;103144.00;5048505;28;20112;-71
2022/01/26 07:02:39;;;;;;;121.80;57.92;;;;;;;1.07;82.16;103150.16;5068355;28;20389;-70
2022/01/26 07:05:08;;;;;;;125.93;58.47;;;;;;;1.07;81.92;103143.31;5058924;28;20041;-71
2022/01/26 07:07:34;;;;;;;118.35;61.08;;;;;;;1.08;82.23;103144.19;5063600;28;20040;-71
2022/01/26 07:09:59;;;;;;;118.10;61.40;;;;;;;1.10;82.25;103134.88;5073304;28;20096;-70
2022/01/26 07:12:25;;;;;;;125.53;62.03;;;;;;;1.10;82.43;103140.03;5042747;28;20066;-70
2022/01/26 07:22:58;;;;;;;120.40;60.33;;;;;;;1.12;82.18;103149.69;5053621;28;20040;-71
2022/01/26 07:25:25;;;;;;;126.70;63.92;;;;;;;1.13;82.80;103163.47;5044826;28;20036;-71
2022/01/26 07:27:51;;;;;;;122.80;63.80;;;;;;;1.13;82.78;103173.81;5061135;28;20033;-70
2022/01/26 07:30:17;;;;;;;122.45;63.25;;;;;;;1.14;82.50;103160.09;5032120;28;20031;-71
2022/01/26 07:32:43;;;;;;;121.57;60.22;;;;;;;1.15;82.81;103151.53;5062148;28;20037;-70
2022/01/26 07:35:09;;;;;;;126.45;65.60;;;;;;;1.13;82.70;103164.34;5059969;28;20046;-71
2022/01/26 07:37:34;;;;;;;127.00;63.10;;;;;;;1.14;83.13;103173.00;5037078;28;20036;-72
2022/01/26 07:40:13;;;;;;;124.57;62.17;;;;;;;1.15;82.88;103162.78;5058136;28;20032;-70
2022/01/26 07:42:44;;;;;;;130.13;62.72;;;;;;;1.16;83.21;103161.06;5037769;28;20028;-71
2022/01/26 07:45:13;;;;;;;128.05;64.57;;;;;;;1.15;83.06;103155.03;5063104;28;20028;-70
2022/01/26 07:47:39;;;;;;;127.78;63.28;;;;;;;1.17;83.40;103160.28;5046475;28;20032;-71
2022/01/26 07:50:08;;;;;;;121.57;63.58;;;;;;;1.18;83.48;103157.81;5053644;28;20051;-70
2022/01/26 07:52:38;;;;;;;126.45;61.25;;;;;;;1.19;83.70;103148.34;5066939;28;20067;-70
2022/01/26 07:55:09;;;;;;;129.70;63.55;;;;;;;1.18;83.97;103147.47;5056796;28;20039;-71
2022/01/26 07:57:34;;;;;;;127.82;62.78;;;;;;;1.21;83.81;103163.16;5060922;28;20277;-71
2022/01/26 08:00:00;;;;;;;135.65;60.80;;;;;;;1.21;83.91;103173.50;5062013;28;20025;-70
2022/01/26 08:02:26;;;;;;;132.43;68.07;;;;;;;1.21;84.16;103188.09;5071699;28;20052;-71
2022/01/26 08:04:51;;;;;;;125.82;62.03;;;;;;;1.23;83.74;103183.91;5050601;28;20028;-71
2022/01/26 08:07:16;;;;;;;131.07;66.20;;;;;;;1.25;84.31;103194.34;5073258;28;20101;-71
2022/01/26 08:09:43;;;;;;;138.57;65.05;;;;;;;1.23;84.74;103186.50;5066541;28;20036;-70
2022/01/26 08:12:13;;;;;;;127.90;65.85;;;;;;;1.24;84.56;103177.09;5075092;28;20143;-75
2022/01/26 08:14:38;;;;;;;137.32;64.43;;;;;;;1.26;84.79;103181.53;5067052;28;20480;-75
2022/01/26 08:17:05;;;;;;;153.02;67.95;;;;;;;1.24;84.94;103190.88;5072034;28;20067;-75
2022/01/26 08:19:31;;;;;;;129.77;63.15;;;;;;;1.25;84.91;103195.25;5068069;28;20032;-76
2022/01/26 08:22:01;;;;;;;134.32;62.33;;;;;;;1.28;85.12;103202.28;5081695;28;20101;-75
2022/01/26 08:24:31;;;;;;;135.63;64.82;;;;;;;1.27;85.36;103197.94;5034104;28;20127;-75
2022/01/26 08:27:07;;;;;;;131.23;65.35;;;;;;;1.27;85.21;103190.19;5070231;28;20500;-76
2022/01/26 08:29:44;;;;;;;141.57;64.40;;;;;;;1.27;85.23;103185.03;5072463;28;20035;-76
2022/01/26 08:32:11;;;;;;;133.65;62.15;;;;;;;1.29;85.27;103175.66;5056162;28;20032;-75
2022/01/26 08:34:36;;;;;;;133.15;62.80;;;;;;;1.30;85.70;103183.50;5071637;28;20097;-76
2022/01/26 08:37:03;;;;;;;127.45;64.95;;;;;;;1.29;85.27;103184.31;5057636;28;20044;-76
2022/01/26 08:39:29;;;;;;;130.05;64.65;;;;;;;1.31;85.33;103184.44;5037350;28;20032;-75
2022/01/26 08:41:54;;;;;;;132.32;67.65;;;;;;;1.32;85.22;103187.13;5058107;28;20117;-76
2022/01/26 08:44:20;;;;;;;127.25;65.40;;;;;;;1.32;85.64;103191.38;5052831;28;20756;-75
2022/01/26 08:46:45;;;;;;;131.02;62.88;;;;;;;1.33;85.85;103201.78;5037827;28;20028;-76
2022/01/26 08:49:11;;;;;;;135.05;64.10;;;;;;;1.34;86.05;103202.72;5065324;28;20020;-75
2022/01/26 08:51:37;;;;;;;136.32;64.13;;;;;;;1.35;85.70;103197.63;5036439;28;20036;-75
2022/01/26 08:54:04;;;;;;;116.53;58.40;;;;;;;1.36;86.04;103194.22;5063976;28;20047;-75
2022/01/26 08:56:30;;;;;;;127.35;59.90;;;;;;;1.39;85.97;103209.03;5050479;28;20032;-75
2022/01/26 08:58:55;;;;;;;118.22;59.40;;;;;;;1.43;86.21;103210.16;5069890;28;20031;-75
2022/01/26 09:01:21;;;;;;;125.20;61.03;;;;;;;1.44;85.57;103201.56;5039873;28;20093;-76
2022/01/26 09:03:49;;;;;;;112.35;56.47;;;;;;;1.46;86.40;103197.41;5062795;28;20546;-76
2022/01/26 09:06:14;;;;;;;118.75;58.67;;;;;;;1.47;85.83;103196.63;5067247;28;20029;-75
2022/01/26 09:08:43;;;;;;;111.63;56.05;;;;;;;1.48;85.59;103193.22;5078319;28;20584;-76
2022/01/26 09:11:09;;;;;;;120.35;61.13;;;;;;;1.49;85.62;103188.16;5048248;28;20090;-76
2022/01/26 09:13:35;;;;;;;119.38;61.22;;;;;;;1.52;85.67;103190.03;5065392;28;20048;-76
2022/01/26 09:16:06;;;;;;;118.82;56.08;;;;;;;1.51;86.09;103196.91;5062647;28;20337;-76
2022/01/26 09:18:41;;;;;;;115.65;61.40;;;;;;;1.54;85.92;103203.97;5067796;28;20032;-75
2022/01/26 09:21:06;;;;;;;127.75;61.08;;;;;;;1.54;86.19;103199.69;5051313;28;20860;-76
2022/01/26 09:23:32;;;;;;;127.30;59.90;;;;;;;1.57;85.85;103196.41;5046903;28;20028;-76
2022/01/26 09:25:58;;;;;;;137.25;61.75;;;;;;;1.59;85.68;103204.25;5064982;28;20028;-76
2022/01/26 09:28:27;;;;;;;120.72;56.90;;;;;;;1.60;86.36;103212.09;5050818;28;20032;-76
2022/01/26 09:30:52;;;;;;;122.05;59.00;;;;;;;1.59;86.21;103199.97;5039102;28;20074;-76
2022/01/26 09:33:18;;;;;;;126.03;59.75;;;;;;;1.62;86.30;103207.03;5053058;28;20064;-76
2022/01/26 09:35:44;;;;;;;117.40;57.22;;;;;;;1.60;85.99;103204.34;5086289;28;20047;-76
2022/01/26 09:38:10;;;;;;;126.93;60.40;;;;;;;1.61;86.21;103206.16;5037224;28;20443;-76
2022/01/26 09:40:36;;;;;;;130.18;59.38;;;;;;;1.62;85.88;103196.69;5035900;28;20496;-76
2022/01/26 09:43:02;;;;;;;108.22;55.65;;;;;;;1.65;86.00;103199.47;5070645;28;20054;-76
2022/01/26 09:45:29;;;;;;;113.85;55.85;;;;;;;1.66;86.10;103188.34;5066410;28;20035;-76
2022/01/26 09:47:55;;;;;;;115.50;56.33;;;;;;;1.69;86.39;103184.25;5053293;28;20056;-77
2022/01/26 09:50:21;;;;;;;116.60;58.90;;;;;;;1.70;86.17;103186.03;5052429;28;20052;-76
2022/01/26 09:52:48;;;;;;;117.68;58.47;;;;;;;1.72;86.20;103179.28;5045221;28;20048;-76
2022/01/26 09:55:15;;;;;;;124.60;60.25;;;;;;;1.72;86.23;103181.88;5068987;28;20024;-76
2022/01/26 09:57:43;;;;;;;120.88;59.40;;;;;;;1.76;86.10;103187.22;5051112;28;20546;-76
2022/01/26 10:00:09;;;;;;;123.25;59.13;;;;;;;1.79;86.57;103182.25;5069551;28;20032;-76
2022/01/26 10:02:35;;;;;;;123.10;57.47;;;;;;;1.79;86.04;103172.78;5039581;28;20114;-76
2022/01/26 10:05:05;;;;;;;114.65;57.10;;;;;;;1.81;86.17;103171.22;5071290;28;20035;-75
2022/01/26 10:18:07;;;;;;;102.47;51.40;;;;;;;1.99;85.79;103178.31;5088995;28;20028;-76
2022/01/26 10:20:42;;;;;;;109.05;56.58;;;;;;;2.00;85.29;103170.63;5066182;28;20032;-76
2022/01/26 10:23:12;;;;;;;111.32;52.55;;;;;;;1.99;84.62;103174.00;5063174;28;20035;-76
2022/01/26 10:25:41;;;;;;;110.13;56.17;;;;;;;1.99;84.93;103168.84;5082121;28;20157;-76
2022/01/26 10:28:11;;;;;;;100.57;50.60;;;;;;;1.99;85.08;103153.31;5068596;28;20035;-76
2022/01/26 10:30:41;;;;;;;97.57;52.78;;;;;;;2.00;85.41;103157.69;5062252;28;20306;-75
2022/01/26 10:33:11;;;;;;;94.90;50.92;;;;;;;2.02;85.14;103162.97;5079282;28;20503;-76
2022/01/26 10:35:39;;;;;;;103.93;52.30;;;;;;;2.04;85.17;103182.03;5064629;28;20038;-76
2022/01/26 10:38:05;;;;;;;101.55;49.28;;;;;;;2.05;85.17;103195.09;5050468;28;20275;-76
2022/01/26 10:40:31;;;;;;;101.80;49.53;;;;;;;2.08;85.02;103220.22;5070793;28;20559;-76
2022/01/26 10:43:03;;;;;;;92.70;47.70;;;;;;;2.08;85.14;103215.06;5071253;28;20028;-75
2022/01/26 10:45:37;;;;;;;103.40;49.58;;;;;;;2.10;84.78;103215.16;5070393;28;20043;-77
2022/01/26 10:48:40;;;;;;;100.53;51.35;;;;;;;2.10;84.32;103217.72;5064275;28;20046;-76
2022/01/26 10:53:40;;;;;;;83.90;44.40;;;;;;;2.14;84.99;103223.22;5084317;28;20565;-75
2022/01/26 10:56:06;;;;;;;89.38;43.05;;;;;;;2.17;84.76;103223.41;5066908;28;20042;-75
2022/01/26 10:58:33;;;;;;;80.85;43.92;;;;;;;2.16;84.74;103213.84;5055223;28;20028;-75
2022/01/26 11:00:58;;;;;;;82.00;42.15;;;;;;;2.18;85.13;103206.16;5071805;28;20519;-76
2022/01/26 11:03:24;;;;;;;83.30;45.17;;;;;;;2.19;85.14;103197.63;5037104;28;20055;-76
2022/01/26 11:05:51;;;;;;;83.43;43.60;;;;;;;2.20;85.04;103199.41;5070860;28;20310;-76
2022/01/26 11:08:19;;;;;;;79.05;42.92;;;;;;;2.21;85.07;103208.94;5072393;28;20865;-76
2022/01/26 11:10:46;;;;;;;85.43;43.97;;;;;;;2.23;84.33;103199.59;5050842;28;20036;-75
2022/01/26 11:13:23;;;;;;;77.95;43.22;;;;;;;2.25;84.97;103197.97;5050965;28;20039;-75
2022/01/26 11:15:49;;;;;;;81.85;43.25;;;;;;;2.24;84.66;103201.34;5067766;28;20028;-75
2022/01/26 11:18:20;;;;;;;82.38;44.58;;;;;;;2.27;84.85;103209.34;5035367;28;20028;-75
2022/01/26 11:20:49;;;;;;;79.78;43.00;;;;;;;2.27;84.75;103190.31;5067965;28;20461;-75
2022/01/26 11:23:18;;;;;;;91.90;43.40;;;;;;;2.28;84.64;103182.63;5048329;28;20024;-76
2022/01/26 11:25:46;;;;;;;74.82;42.60;;;;;;;2.30;85.37;103191.41;5067534;28;20081;-75
2022/01/26 11:28:27;;;;;;;75.72;42.10;;;;;;;2.33;84.65;103191.59;5061931;28;20020;-76
2022/01/26 11:30:58;;;;;;;76.28;42.55;;;;;;;2.34;85.09;103187.28;5066507;28;20032;-76
2022/01/26 11:33:26;;;;;;;82.43;39.97;;;;;;;2.35;84.89;103186.50;5057307;28;20032;-76
2022/01/26 11:35:54;;;;;;;78.88;42.75;;;;;;;2.37;85.16;103185.78;5057931;28;20032;-76
2022/01/26 11:39:13;;;;;;;83.28;43.00;;;;;;;2.38;84.64;103174.63;5057293;28;20115;-76
2022/01/26 11:47:15;;;;;;;90.18;43.50;;;;;;;2.42;84.94;103150.72;5077880;28;20187;-75
2022/01/26 11:49:43;;;;;;;78.00;43.38;;;;;;;2.46;84.99;103161.22;5058585;28;20062;-75
2022/01/26 11:52:23;;;;;;;85.55;44.88;;;;;;;2.51;84.65;103162.41;5076872;28;20408;-75
2022/01/26 11:54:56;;;;;;;78.68;42.05;;;;;;;2.52;84.79;103159.03;5061018;28;20067;-76
2022/01/26 11:57:36;;;;;;;87.30;43.92;;;;;;;2.52;84.54;103152.16;5056948;28;20032;-75
2022/01/26 12:00:07;;;;;;;86.32;44.38;;;;;;;2.51;84.47;103141.72;5064402;28;20027;-75
2022/01/26 12:05:13;;;;;;;73.90;42.78;;;;;;;2.54;84.59;103134.13;5070825;28;20473;-76
2022/01/26 12:07:58;;;;;;;86.15;44.70;;;;;;;2.56;85.16;103137.69;5042778;28;20116;-76
2022/01/26 12:10:30;;;;;;;87.07;45.30;;;;;;;2.57;84.29;103130.03;5076469;28;20058;-76
2022/01/26 12:13:12;;;;;;;97.50;46.08;;;;;;;2.60;84.55;103129.28;5069434;28;20086;-76
2022/01/26 12:15:55;;;;;;;91.85;46.80;;;;;;;2.62;84.45;103132.88;5073707;28;20034;-76
2022/01/26 12:34:49;;;;;;;86.93;45.20;;;;;;;2.78;84.19;103138.09;5092146;28;20513;-76
2022/01/26 12:37:41;;;;;;;84.82;44.78;;;;;;;2.78;84.03;103139.81;5068514;28;20078;-76
2022/01/26 12:43:09;;;;;;;81.85;43.13;;;;;;;2.74;83.51;103148.22;5074000;28;20113;-76
2022/01/26 12:45:35;;;;;;;85.13;45.13;;;;;;;2.75;83.93;103144.81;5059892;28;20089;-76
2022/01/26 12:48:01;;;;;;;76.28;42.88;;;;;;;2.76;84.23;103144.03;5089546;28;20035;-75
2022/01/26 12:50:27;;;;;;;81.88;44.92;;;;;;;2.78;84.23;103140.69;5092336;28;20028;-76
2022/01/26 12:52:55;;;;;;;81.25;43.00;;;;;;;2.81;84.03;103140.00;5065252;28;20065;-76
2022/01/26 12:55:23;;;;;;;89.20;44.28;;;;;;;2.85;83.92;103146.25;5070668;28;20031;-76
2022/01/26 12:57:49;;;;;;;79.97;45.53;;;;;;;2.86;83.87;103146.34;5089649;28;20034;-76
2022/01/26 13:00:16;;;;;;;77.47;42.13;;;;;;;2.88;83.32;103136.06;5071259;28;20458;-76
2022/01/26 13:02:42;;;;;;;93.35;45.13;;;;;;;2.93;83.71;103132.94;5074461;28;20040;-76
2022/01/26 13:05:09;;;;;;;82.93;45.75;;;;;;;2.95;83.61;103120.94;5074132;28;20032;-76
2022/01/26 13:07:38;;;;;;;85.72;45.58;;;;;;;3.02;83.66;103121.31;5057854;28;20484;-76
2022/01/26 13:10:17;;;;;;;77.47;43.55;;;;;;;3.06;83.60;103126.75;5071851;28;20028;-75
2022/01/26 13:12:43;;;;;;;84.55;43.75;;;;;;;3.10;83.99;103118.34;5074233;28;20036;-76
2022/01/26 13:17:45;;;;;;;95.38;44.70;;;;;;;3.10;83.43;103109.66;5075377;28;20036;-76
2022/01/26 13:38:55;;;;;;;74.18;40.25;;;;;;;3.32;82.73;103098.78;5090043;28;20159;-75
2022/01/26 13:54:32;;;;;;;72.05;39.75;;;;;;;3.17;82.12;103088.47;5075257;28;20072;-71
2022/01/26 13:57:15;;;;;;;70.90;40.35;;;;;;;3.18;82.19;103079.88;5085438;28;20046;-72
2022/01/26 13:59:51;;;;;;;84.53;42.40;;;;;;;3.19;81.81;103076.50;5043679;28;20040;-71
2022/01/26 14:02:17;;;;;;;79.82;40.72;;;;;;;3.21;81.93;103071.41;5072640;28;20024;-71
2022/01/26 14:04:42;;;;;;;82.32;45.75;;;;;;;3.22;82.27;103062.78;5046654;28;20460;-71
2022/01/26 14:07:08;;;;;;;98.25;54.88;;;;;;;3.23;82.02;103062.00;5064620;28;20033;-71
2022/01/26 14:09:34;;;;;;;106.65;55.55;;;;;;;3.20;81.59;103067.88;5050178;28;20028;-71